sensor_id;sensor_type;location;lat;lon;timestamp;P1;durP1;ratioP1;P2;durP2;ratioP2
39370;SDS011;25099;51.946;4.838;2023-04-08T00:01:00;45.75;;;23.45;;
39370;SDS011;25099;51.946;4.838;2023-04-08T00:03:26;36.25;;;24.10;;
39370;SDS011;25099;51.946;4.838;2023-04-08T00:05:51;36.22;;;21.90;;
39370;SDS011;25099;51.946;4.838;2023-04-08T00:08:17;42.25;;;24.10;;
39370;SDS011;25099;51.946;4.838;2023-04-08T00:10:42;39.05;;;23.50;;
39370;SDS011;25099;51.946;4.838;2023-04-08T00:13:08;39.95;;;23.63;;
39370;SDS011;25099;51.946;4.838;2023-04-08T00:15:34;39.42;;;24.73;;
39370;SDS011;25099;51.946;4.838;2023-04-08T00:18:00;44.22;;;24.45;;
39370;SDS011;25099;51.946;4.838;2023-04-08T00:20:26;40.83;;;24.17;;
39370;SDS011;25099;51.946;4.838;2023-04-08T00:22:51;42.88;;;24.05;;
39370;SDS011;25099;51.946;4.838;2023-04-08T00:25:17;44.97;;;25.38;;
39370;SDS011;25099;51.946;4.838;2023-04-08T00:27:43;45.40;;;25.42;;
39370;SDS011;25099;51.946;4.838;2023-04-08T00:30:08;43.95;;;25.25;;
39370;SDS011;25099;51.946;4.838;2023-04-08T00:32:34;43.75;;;24.98;;
39370;SDS011;25099;51.946;4.838;2023-04-08T00:35:00;38.75;;;24.17;;
39370;SDS011;25099;51.946;4.838;2023-04-08T00:37:26;48.45;;;25.77;;
39370;SDS011;25099;51.946;4.838;2023-04-08T00:39:52;46.67;;;25.10;;
39370;SDS011;25099;51.946;4.838;2023-04-08T00:42:18;44.80;;;26.13;;
39370;SDS011;25099;51.946;4.838;2023-04-08T00:44:44;41.95;;;26.13;;
39370;SDS011;25099;51.946;4.838;2023-04-08T00:47:13;42.42;;;26.15;;
39370;SDS011;25099;51.946;4.838;2023-04-08T00:49:39;48.17;;;27.52;;
39370;SDS011;25099;51.946;4.838;2023-04-08T00:52:05;43.50;;;26.55;;
39370;SDS011;25099;51.946;4.838;2023-04-08T00:54:31;45.45;;;26.25;;
39370;SDS011;25099;51.946;4.838;2023-04-08T00:56:56;44.80;;;27.30;;
39370;SDS011;25099;51.946;4.838;2023-04-08T00:59:25;45.42;;;26.13;;
39370;SDS011;25099;51.946;4.838;2023-04-08T01:02:03;45.72;;;27.17;;
39370;SDS011;25099;51.946;4.838;2023-04-08T01:04:54;45.72;;;28.02;;
39370;SDS011;25099;51.946;4.838;2023-04-08T01:07:31;46.67;;;27.48;;
39370;SDS011;25099;51.946;4.838;2023-04-08T01:10:14;51.10;;;28.42;;
39370;SDS011;25099;51.946;4.838;2023-04-08T01:12:48;45.97;;;27.48;;
39370;SDS011;25099;51.946;4.838;2023-04-08T01:15:17;50.50;;;27.63;;
39370;SDS011;25099;51.946;4.838;2023-04-08T01:17:43;43.25;;;27.35;;
39370;SDS011;25099;51.946;4.838;2023-04-08T01:20:11;49.50;;;27.15;;
39370;SDS011;25099;51.946;4.838;2023-04-08T01:25:09;48.63;;;28.48;;
39370;SDS011;25099;51.946;4.838;2023-04-08T01:27:51;44.33;;;27.67;;
39370;SDS011;25099;51.946;4.838;2023-04-08T01:30:20;48.33;;;28.10;;
39370;SDS011;25099;51.946;4.838;2023-04-08T01:32:49;43.85;;;26.48;;
39370;SDS011;25099;51.946;4.838;2023-04-08T01:35:17;46.90;;;27.55;;
39370;SDS011;25099;51.946;4.838;2023-04-08T01:37:43;42.75;;;26.65;;
39370;SDS011;25099;51.946;4.838;2023-04-08T01:40:10;49.30;;;27.23;;
39370;SDS011;25099;51.946;4.838;2023-04-08T01:42:36;46.22;;;28.27;;
39370;SDS011;25099;51.946;4.838;2023-04-08T01:45:03;48.38;;;27.65;;
39370;SDS011;25099;51.946;4.838;2023-04-08T01:47:30;47.85;;;27.48;;
39370;SDS011;25099;51.946;4.838;2023-04-08T01:49:56;47.28;;;27.77;;
39370;SDS011;25099;51.946;4.838;2023-04-08T01:52:23;45.72;;;27.27;;
39370;SDS011;25099;51.946;4.838;2023-04-08T01:54:50;42.38;;;28.27;;
39370;SDS011;25099;51.946;4.838;2023-04-08T01:57:18;47.22;;;27.00;;
39370;SDS011;25099;51.946;4.838;2023-04-08T01:59:51;44.75;;;25.98;;
39370;SDS011;25099;51.946;4.838;2023-04-08T02:02:20;41.42;;;26.45;;
39370;SDS011;25099;51.946;4.838;2023-04-08T02:04:48;47.58;;;27.52;;
39370;SDS011;25099;51.946;4.838;2023-04-08T02:07:14;44.55;;;26.50;;
39370;SDS011;25099;51.946;4.838;2023-04-08T02:09:39;42.13;;;25.73;;
39370;SDS011;25099;51.946;4.838;2023-04-08T02:12:06;45.50;;;27.42;;
39370;SDS011;25099;51.946;4.838;2023-04-08T02:14:31;46.50;;;27.25;;
39370;SDS011;25099;51.946;4.838;2023-04-08T02:23:06;40.42;;;25.67;;
39370;SDS011;25099;51.946;4.838;2023-04-08T02:25:15;45.20;;;25.25;;
39370;SDS011;25099;51.946;4.838;2023-04-08T02:27:41;43.20;;;26.52;;
39370;SDS011;25099;51.946;4.838;2023-04-08T02:30:09;54.75;;;25.70;;
39370;SDS011;25099;51.946;4.838;2023-04-08T02:32:36;43.88;;;27.80;;
39370;SDS011;25099;51.946;4.838;2023-04-08T02:35:03;45.88;;;27.45;;
39370;SDS011;25099;51.946;4.838;2023-04-08T02:37:32;41.10;;;26.52;;
39370;SDS011;25099;51.946;4.838;2023-04-08T02:39:58;44.60;;;26.27;;
39370;SDS011;25099;51.946;4.838;2023-04-08T02:42:24;40.40;;;24.48;;
39370;SDS011;25099;51.946;4.838;2023-04-08T02:44:50;38.55;;;23.70;;
39370;SDS011;25099;51.946;4.838;2023-04-08T02:47:16;35.78;;;22.27;;
39370;SDS011;25099;51.946;4.838;2023-04-08T02:49:41;34.75;;;21.75;;
39370;SDS011;25099;51.946;4.838;2023-04-08T02:52:07;37.53;;;22.38;;
39370;SDS011;25099;51.946;4.838;2023-04-08T02:54:32;34.60;;;21.90;;
39370;SDS011;25099;51.946;4.838;2023-04-08T02:56:58;36.08;;;21.63;;
39370;SDS011;25099;51.946;4.838;2023-04-08T02:59:23;33.70;;;21.25;;
39370;SDS011;25099;51.946;4.838;2023-04-08T03:01:49;31.48;;;20.90;;
39370;SDS011;25099;51.946;4.838;2023-04-08T03:04:15;28.90;;;20.02;;
39370;SDS011;25099;51.946;4.838;2023-04-08T03:06:40;30.85;;;19.55;;
39370;SDS011;25099;51.946;4.838;2023-04-08T03:09:06;30.75;;;18.77;;
39370;SDS011;25099;51.946;4.838;2023-04-08T03:11:31;30.65;;;20.17;;
39370;SDS011;25099;51.946;4.838;2023-04-08T03:13:57;46.15;;;20.65;;
39370;SDS011;25099;51.946;4.838;2023-04-08T03:16:23;33.53;;;21.88;;
39370;SDS011;25099;51.946;4.838;2023-04-08T03:18:49;31.83;;;21.70;;
39370;SDS011;25099;51.946;4.838;2023-04-08T03:21:15;35.35;;;22.08;;
39370;SDS011;25099;51.946;4.838;2023-04-08T03:23:41;33.60;;;19.88;;
39370;SDS011;25099;51.946;4.838;2023-04-08T03:26:06;34.10;;;20.00;;
39370;SDS011;25099;51.946;4.838;2023-04-08T03:28:32;32.00;;;18.65;;
39370;SDS011;25099;51.946;4.838;2023-04-08T03:30:57;46.47;;;17.40;;
39370;SDS011;25099;51.946;4.838;2023-04-08T03:33:24;31.75;;;17.40;;
39370;SDS011;25099;51.946;4.838;2023-04-08T03:35:50;27.25;;;15.10;;
39370;SDS011;25099;51.946;4.838;2023-04-08T03:38:17;36.63;;;16.13;;
39370;SDS011;25099;51.946;4.838;2023-04-08T03:40:42;29.75;;;16.40;;
39370;SDS011;25099;51.946;4.838;2023-04-08T03:43:08;24.20;;;14.63;;
39370;SDS011;25099;51.946;4.838;2023-04-08T03:45:35;56.30;;;12.90;;
39370;SDS011;25099;51.946;4.838;2023-04-08T03:48:01;34.08;;;13.13;;
39370;SDS011;25099;51.946;4.838;2023-04-08T03:50:26;15.82;;;12.20;;
39370;SDS011;25099;51.946;4.838;2023-04-08T03:52:52;21.13;;;12.93;;
39370;SDS011;25099;51.946;4.838;2023-04-08T03:55:18;28.92;;;11.95;;
39370;SDS011;25099;51.946;4.838;2023-04-08T03:57:43;15.07;;;12.18;;
39370;SDS011;25099;51.946;4.838;2023-04-08T04:00:09;14.20;;;12.63;;
39370;SDS011;25099;51.946;4.838;2023-04-08T04:02:35;21.38;;;11.35;;
39370;SDS011;25099;51.946;4.838;2023-04-08T04:05:01;21.40;;;12.50;;
39370;SDS011;25099;51.946;4.838;2023-04-08T04:07:26;12.88;;;10.80;;
39370;SDS011;25099;51.946;4.838;2023-04-08T04:09:52;36.88;;;11.00;;
39370;SDS011;25099;51.946;4.838;2023-04-08T04:12:20;29.13;;;11.27;;
39370;SDS011;25099;51.946;4.838;2023-04-08T04:14:45;24.65;;;10.82;;
39370;SDS011;25099;51.946;4.838;2023-04-08T04:17:11;24.30;;;9.95;;
39370;SDS011;25099;51.946;4.838;2023-04-08T04:19:36;11.15;;;10.15;;
39370;SDS011;25099;51.946;4.838;2023-04-08T04:22:02;11.38;;;9.85;;
39370;SDS011;25099;51.946;4.838;2023-04-08T04:24:27;10.80;;;9.70;;
39370;SDS011;25099;51.946;4.838;2023-04-08T04:26:53;27.58;;;11.18;;
39370;SDS011;25099;51.946;4.838;2023-04-08T04:29:18;28.40;;;11.65;;
39370;SDS011;25099;51.946;4.838;2023-04-08T04:31:44;13.98;;;11.15;;
39370;SDS011;25099;51.946;4.838;2023-04-08T04:34:10;12.70;;;11.40;;
39370;SDS011;25099;51.946;4.838;2023-04-08T04:36:35;16.02;;;10.95;;
39370;SDS011;25099;51.946;4.838;2023-04-08T04:39:01;31.48;;;11.25;;
39370;SDS011;25099;51.946;4.838;2023-04-08T04:41:26;12.95;;;11.65;;
39370;SDS011;25099;51.946;4.838;2023-04-08T04:43:52;17.30;;;11.10;;
39370;SDS011;25099;51.946;4.838;2023-04-08T04:46:17;30.25;;;11.45;;
39370;SDS011;25099;51.946;4.838;2023-04-08T04:48:43;15.82;;;11.90;;
39370;SDS011;25099;51.946;4.838;2023-04-08T04:51:09;15.77;;;12.10;;
39370;SDS011;25099;51.946;4.838;2023-04-08T04:53:34;12.70;;;11.48;;
39370;SDS011;25099;51.946;4.838;2023-04-08T04:56:00;13.80;;;12.20;;
39370;SDS011;25099;51.946;4.838;2023-04-08T04:58:26;40.55;;;12.75;;
39370;SDS011;25099;51.946;4.838;2023-04-08T05:00:51;14.77;;;10.23;;
39370;SDS011;25099;51.946;4.838;2023-04-08T05:03:17;16.20;;;10.77;;
39370;SDS011;25099;51.946;4.838;2023-04-08T05:05:42;38.38;;;11.90;;
39370;SDS011;25099;51.946;4.838;2023-04-08T05:08:08;13.38;;;11.98;;
39370;SDS011;25099;51.946;4.838;2023-04-08T05:10:33;22.25;;;11.77;;
39370;SDS011;25099;51.946;4.838;2023-04-08T05:12:59;20.02;;;12.40;;
39370;SDS011;25099;51.946;4.838;2023-04-08T05:15:25;15.48;;;13.48;;
39370;SDS011;25099;51.946;4.838;2023-04-08T05:17:50;24.70;;;12.55;;
39370;SDS011;25099;51.946;4.838;2023-04-08T05:20:16;147.88;;;14.55;;
39370;SDS011;25099;51.946;4.838;2023-04-08T05:22:41;54.80;;;12.45;;
39370;SDS011;25099;51.946;4.838;2023-04-08T05:25:09;17.35;;;13.50;;
39370;SDS011;25099;51.946;4.838;2023-04-08T05:27:35;33.72;;;13.43;;
39370;SDS011;25099;51.946;4.838;2023-04-08T05:30:01;27.77;;;14.48;;
39370;SDS011;25099;51.946;4.838;2023-04-08T05:32:26;16.48;;;14.60;;
39370;SDS011;25099;51.946;4.838;2023-04-08T05:34:53;16.42;;;14.23;;
39370;SDS011;25099;51.946;4.838;2023-04-08T05:37:19;17.55;;;14.43;;
39370;SDS011;25099;51.946;4.838;2023-04-08T05:39:45;16.70;;;14.23;;
39370;SDS011;25099;51.946;4.838;2023-04-08T05:42:10;27.08;;;14.43;;
39370;SDS011;25099;51.946;4.838;2023-04-08T05:44:37;24.23;;;13.35;;
39370;SDS011;25099;51.946;4.838;2023-04-08T05:47:05;18.33;;;13.70;;
39370;SDS011;25099;51.946;4.838;2023-04-08T05:49:32;26.80;;;13.43;;
39370;SDS011;25099;51.946;4.838;2023-04-08T05:51:57;16.38;;;13.05;;
39370;SDS011;25099;51.946;4.838;2023-04-08T05:54:23;14.93;;;13.43;;
39370;SDS011;25099;51.946;4.838;2023-04-08T05:56:49;15.68;;;14.00;;
39370;SDS011;25099;51.946;4.838;2023-04-08T05:59:14;27.00;;;13.63;;
39370;SDS011;25099;51.946;4.838;2023-04-08T06:01:40;15.20;;;12.68;;
39370;SDS011;25099;51.946;4.838;2023-04-08T06:04:06;42.47;;;12.25;;
39370;SDS011;25099;51.946;4.838;2023-04-08T06:06:31;47.65;;;11.38;;
39370;SDS011;25099;51.946;4.838;2023-04-08T06:08:57;31.55;;;13.00;;
39370;SDS011;25099;51.946;4.838;2023-04-08T06:11:22;42.42;;;12.85;;
39370;SDS011;25099;51.946;4.838;2023-04-08T06:13:48;27.90;;;12.77;;
39370;SDS011;25099;51.946;4.838;2023-04-08T06:16:14;17.70;;;11.82;;
39370;SDS011;25099;51.946;4.838;2023-04-08T06:18:43;23.60;;;13.03;;
39370;SDS011;25099;51.946;4.838;2023-04-08T06:21:09;13.48;;;12.07;;
39370;SDS011;25099;51.946;4.838;2023-04-08T06:23:35;13.25;;;11.95;;
39370;SDS011;25099;51.946;4.838;2023-04-08T06:26:00;12.85;;;11.50;;
39370;SDS011;25099;51.946;4.838;2023-04-08T06:28:29;15.48;;;13.20;;
39370;SDS011;25099;51.946;4.838;2023-04-08T06:30:55;15.70;;;13.48;;
39370;SDS011;25099;51.946;4.838;2023-04-08T06:33:21;22.42;;;13.88;;
39370;SDS011;25099;51.946;4.838;2023-04-08T06:35:47;40.92;;;15.35;;
39370;SDS011;25099;51.946;4.838;2023-04-08T06:38:12;51.65;;;15.20;;
39370;SDS011;25099;51.946;4.838;2023-04-08T06:40:38;36.58;;;15.23;;
39370;SDS011;25099;51.946;4.838;2023-04-08T06:43:04;29.73;;;16.00;;
39370;SDS011;25099;51.946;4.838;2023-04-08T06:45:33;19.98;;;15.65;;
39370;SDS011;25099;51.946;4.838;2023-04-08T06:47:59;30.75;;;15.98;;
39370;SDS011;25099;51.946;4.838;2023-04-08T06:50:25;18.40;;;14.82;;
39370;SDS011;25099;51.946;4.838;2023-04-08T06:52:50;26.60;;;16.23;;
39370;SDS011;25099;51.946;4.838;2023-04-08T06:55:16;37.33;;;15.60;;
39370;SDS011;25099;51.946;4.838;2023-04-08T06:57:42;24.08;;;14.48;;
39370;SDS011;25099;51.946;4.838;2023-04-08T07:00:07;19.55;;;16.30;;
39370;SDS011;25099;51.946;4.838;2023-04-08T07:02:33;18.98;;;15.50;;
39370;SDS011;25099;51.946;4.838;2023-04-08T07:04:59;20.52;;;16.80;;
39370;SDS011;25099;51.946;4.838;2023-04-08T07:07:25;29.10;;;17.38;;
39370;SDS011;25099;51.946;4.838;2023-04-08T07:09:50;27.55;;;15.95;;
39370;SDS011;25099;51.946;4.838;2023-04-08T07:12:16;24.15;;;17.13;;
39370;SDS011;25099;51.946;4.838;2023-04-08T07:14:42;21.45;;;17.10;;
39370;SDS011;25099;51.946;4.838;2023-04-08T07:17:07;22.00;;;17.63;;
39370;SDS011;25099;51.946;4.838;2023-04-08T07:19:33;23.83;;;16.42;;
39370;SDS011;25099;51.946;4.838;2023-04-08T07:22:00;36.47;;;21.58;;
39370;SDS011;25099;51.946;4.838;2023-04-08T07:24:25;39.83;;;20.75;;
39370;SDS011;25099;51.946;4.838;2023-04-08T07:26:51;29.42;;;20.75;;
39370;SDS011;25099;51.946;4.838;2023-04-08T07:29:17;28.17;;;20.10;;
39370;SDS011;25099;51.946;4.838;2023-04-08T07:31:42;36.50;;;21.40;;
39370;SDS011;25099;51.946;4.838;2023-04-08T07:34:08;24.30;;;18.30;;
39370;SDS011;25099;51.946;4.838;2023-04-08T07:36:34;25.60;;;19.38;;
39370;SDS011;25099;51.946;4.838;2023-04-08T07:39:00;24.48;;;19.10;;
39370;SDS011;25099;51.946;4.838;2023-04-08T07:41:25;33.75;;;20.00;;
39370;SDS011;25099;51.946;4.838;2023-04-08T07:43:51;32.70;;;18.38;;
39370;SDS011;25099;51.946;4.838;2023-04-08T07:46:16;31.48;;;19.35;;
39370;SDS011;25099;51.946;4.838;2023-04-08T07:48:42;29.60;;;18.77;;
39370;SDS011;25099;51.946;4.838;2023-04-08T07:51:08;37.45;;;19.15;;
39370;SDS011;25099;51.946;4.838;2023-04-08T07:53:36;26.33;;;18.55;;
39370;SDS011;25099;51.946;4.838;2023-04-08T07:56:02;21.25;;;17.58;;
39370;SDS011;25099;51.946;4.838;2023-04-08T07:58:34;24.88;;;17.95;;
39370;SDS011;25099;51.946;4.838;2023-04-08T08:01:33;28.73;;;18.67;;
39370;SDS011;25099;51.946;4.838;2023-04-08T08:03:59;23.17;;;18.73;;
39370;SDS011;25099;51.946;4.838;2023-04-08T08:06:26;24.80;;;17.73;;
39370;SDS011;25099;51.946;4.838;2023-04-08T08:08:52;28.25;;;16.95;;
39370;SDS011;25099;51.946;4.838;2023-04-08T08:11:17;20.15;;;17.25;;
39370;SDS011;25099;51.946;4.838;2023-04-08T08:13:43;27.70;;;17.33;;
39370;SDS011;25099;51.946;4.838;2023-04-08T08:16:09;22.80;;;16.73;;
39370;SDS011;25099;51.946;4.838;2023-04-08T08:18:38;20.65;;;16.77;;
39370;SDS011;25099;51.946;4.838;2023-04-08T08:21:04;25.58;;;16.45;;
39370;SDS011;25099;51.946;4.838;2023-04-08T08:23:30;23.23;;;16.65;;
39370;SDS011;25099;51.946;4.838;2023-04-08T08:25:59;20.65;;;16.55;;
39370;SDS011;25099;51.946;4.838;2023-04-08T08:28:26;21.17;;;17.55;;
39370;SDS011;25099;51.946;4.838;2023-04-08T08:30:52;25.83;;;16.75;;
39370;SDS011;25099;51.946;4.838;2023-04-08T08:33:17;19.65;;;16.77;;
39370;SDS011;25099;51.946;4.838;2023-04-08T08:35:43;21.83;;;16.95;;
39370;SDS011;25099;51.946;4.838;2023-04-08T08:38:09;20.40;;;17.40;;
39370;SDS011;25099;51.946;4.838;2023-04-08T08:40:34;23.17;;;18.58;;
39370;SDS011;25099;51.946;4.838;2023-04-08T08:43:00;21.55;;;17.60;;
39370;SDS011;25099;51.946;4.838;2023-04-08T08:45:26;24.67;;;18.10;;
39370;SDS011;25099;51.946;4.838;2023-04-08T08:47:51;18.58;;;16.52;;
39370;SDS011;25099;51.946;4.838;2023-04-08T08:50:17;22.55;;;18.48;;
39370;SDS011;25099;51.946;4.838;2023-04-08T08:52:52;22.23;;;17.88;;
39370;SDS011;25099;51.946;4.838;2023-04-08T08:55:18;23.48;;;18.67;;
39370;SDS011;25099;51.946;4.838;2023-04-08T08:57:44;23.15;;;18.63;;
39370;SDS011;25099;51.946;4.838;2023-04-08T09:00:10;20.75;;;18.25;;
39370;SDS011;25099;51.946;4.838;2023-04-08T09:02:37;22.83;;;18.88;;
39370;SDS011;25099;51.946;4.838;2023-04-08T09:05:03;25.23;;;19.48;;
39370;SDS011;25099;51.946;4.838;2023-04-08T09:07:30;22.20;;;19.35;;
39370;SDS011;25099;51.946;4.838;2023-04-08T09:09:59;24.20;;;20.23;;
39370;SDS011;25099;51.946;4.838;2023-04-08T09:12:25;22.73;;;18.77;;
39370;SDS011;25099;51.946;4.838;2023-04-08T09:15:02;26.17;;;21.67;;
39370;SDS011;25099;51.946;4.838;2023-04-08T09:17:36;23.73;;;19.50;;
39370;SDS011;25099;51.946;4.838;2023-04-08T09:20:03;25.40;;;19.35;;
39370;SDS011;25099;51.946;4.838;2023-04-08T09:25:31;23.73;;;19.95;;
39370;SDS011;25099;51.946;4.838;2023-04-08T09:27:57;25.73;;;21.30;;
39370;SDS011;25099;51.946;4.838;2023-04-08T09:30:24;25.08;;;21.63;;
39370;SDS011;25099;51.946;4.838;2023-04-08T09:32:52;26.63;;;22.30;;
39370;SDS011;25099;51.946;4.838;2023-04-08T09:35:19;25.83;;;22.27;;
39370;SDS011;25099;51.946;4.838;2023-04-08T09:37:45;25.70;;;21.55;;
39370;SDS011;25099;51.946;4.838;2023-04-08T09:40:12;25.58;;;21.73;;
39370;SDS011;25099;51.946;4.838;2023-04-08T09:42:40;25.83;;;22.10;;
39370;SDS011;25099;51.946;4.838;2023-04-08T09:45:17;28.50;;;22.30;;
39370;SDS011;25099;51.946;4.838;2023-04-08T09:47:46;29.60;;;25.08;;
39370;SDS011;25099;51.946;4.838;2023-04-08T09:50:26;29.95;;;25.02;;
39370;SDS011;25099;51.946;4.838;2023-04-08T09:52:57;30.25;;;22.83;;
39370;SDS011;25099;51.946;4.838;2023-04-08T09:55:26;30.70;;;24.02;;
39370;SDS011;25099;51.946;4.838;2023-04-08T09:58:14;29.85;;;24.00;;
39370;SDS011;25099;51.946;4.838;2023-04-08T10:01:02;35.03;;;24.75;;
39370;SDS011;25099;51.946;4.838;2023-04-08T10:03:33;41.25;;;25.63;;
39370;SDS011;25099;51.946;4.838;2023-04-08T10:06:14;32.90;;;26.02;;
39370;SDS011;25099;51.946;4.838;2023-04-08T10:08:56;30.55;;;24.63;;
39370;SDS011;25099;51.946;4.838;2023-04-08T10:11:22;28.42;;;23.42;;
39370;SDS011;25099;51.946;4.838;2023-04-08T10:13:57;32.97;;;23.75;;
39370;SDS011;25099;51.946;4.838;2023-04-08T10:16:34;31.40;;;22.85;;
39370;SDS011;25099;51.946;4.838;2023-04-08T10:27:41;21.88;;;18.63;;
39370;SDS011;25099;51.946;4.838;2023-04-08T10:32:54;22.58;;;18.67;;
39370;SDS011;25099;51.946;4.838;2023-04-08T10:37:56;20.88;;;18.58;;
39370;SDS011;25099;51.946;4.838;2023-04-08T10:40:22;26.75;;;19.48;;
39370;SDS011;25099;51.946;4.838;2023-04-08T10:42:57;26.88;;;20.30;;
39370;SDS011;25099;51.946;4.838;2023-04-08T10:45:24;27.63;;;20.42;;
39370;SDS011;25099;51.946;4.838;2023-04-08T10:47:50;21.77;;;18.98;;
39370;SDS011;25099;51.946;4.838;2023-04-08T10:50:17;22.52;;;19.40;;
39370;SDS011;25099;51.946;4.838;2023-04-08T10:52:47;20.20;;;18.02;;
39370;SDS011;25099;51.946;4.838;2023-04-08T10:55:14;25.73;;;17.77;;
39370;SDS011;25099;51.946;4.838;2023-04-08T10:57:40;18.63;;;16.63;;
39370;SDS011;25099;51.946;4.838;2023-04-08T11:00:09;20.08;;;15.75;;
39370;SDS011;25099;51.946;4.838;2023-04-08T11:02:38;24.08;;;17.08;;
39370;SDS011;25099;51.946;4.838;2023-04-08T11:05:04;19.08;;;17.02;;
39370;SDS011;25099;51.946;4.838;2023-04-08T11:07:29;20.27;;;15.30;;
39370;SDS011;25099;51.946;4.838;2023-04-08T11:09:55;15.93;;;13.95;;
39370;SDS011;25099;51.946;4.838;2023-04-08T11:12:21;15.88;;;14.40;;
39370;SDS011;25099;51.946;4.838;2023-04-08T11:14:47;16.17;;;13.55;;
39370;SDS011;25099;51.946;4.838;2023-04-08T11:17:13;20.17;;;14.45;;
39370;SDS011;25099;51.946;4.838;2023-04-08T11:19:40;15.98;;;14.27;;
39370;SDS011;25099;51.946;4.838;2023-04-08T11:22:06;17.40;;;14.15;;
39370;SDS011;25099;51.946;4.838;2023-04-08T11:24:34;18.27;;;15.07;;
39370;SDS011;25099;51.946;4.838;2023-04-08T11:27:15;17.58;;;15.77;;
39370;SDS011;25099;51.946;4.838;2023-04-08T11:29:54;16.05;;;13.75;;
39370;SDS011;25099;51.946;4.838;2023-04-08T11:32:20;15.02;;;13.43;;
39370;SDS011;25099;51.946;4.838;2023-04-08T11:35:05;15.52;;;13.57;;
39370;SDS011;25099;51.946;4.838;2023-04-08T11:37:43;15.07;;;13.30;;
39370;SDS011;25099;51.946;4.838;2023-04-08T11:40:23;14.55;;;12.98;;
39370;SDS011;25099;51.946;4.838;2023-04-08T11:42:54;18.55;;;13.43;;
39370;SDS011;25099;51.946;4.838;2023-04-08T11:45:20;14.32;;;12.93;;
39370;SDS011;25099;51.946;4.838;2023-04-08T11:47:55;15.77;;;13.40;;
39370;SDS011;25099;51.946;4.838;2023-04-08T11:50:21;14.95;;;13.40;;
39370;SDS011;25099;51.946;4.838;2023-04-08T11:52:55;15.55;;;13.13;;
39370;SDS011;25099;51.946;4.838;2023-04-08T11:55:25;14.50;;;13.10;;
39370;SDS011;25099;51.946;4.838;2023-04-08T11:58:00;16.17;;;12.45;;
39370;SDS011;25099;51.946;4.838;2023-04-08T12:00:39;14.07;;;12.68;;
39370;SDS011;25099;51.946;4.838;2023-04-08T12:03:24;13.00;;;11.80;;
39370;SDS011;25099;51.946;4.838;2023-04-08T12:05:50;18.60;;;13.98;;
39370;SDS011;25099;51.946;4.838;2023-04-08T12:08:19;16.48;;;12.68;;
39370;SDS011;25099;51.946;4.838;2023-04-08T12:10:44;16.27;;;12.15;;
39370;SDS011;25099;51.946;4.838;2023-04-08T12:13:16;13.55;;;12.15;;
39370;SDS011;25099;51.946;4.838;2023-04-08T12:15:41;14.35;;;11.52;;
39370;SDS011;25099;51.946;4.838;2023-04-08T12:18:10;12.23;;;10.90;;
39370;SDS011;25099;51.946;4.838;2023-04-08T12:20:35;12.40;;;11.20;;
39370;SDS011;25099;51.946;4.838;2023-04-08T12:23:01;12.65;;;10.98;;
39370;SDS011;25099;51.946;4.838;2023-04-08T12:25:27;12.55;;;10.68;;
39370;SDS011;25099;51.946;4.838;2023-04-08T12:27:53;13.73;;;11.93;;
39370;SDS011;25099;51.946;4.838;2023-04-08T12:30:34;13.55;;;12.23;;
39370;SDS011;25099;51.946;4.838;2023-04-08T12:33:05;12.90;;;11.60;;
39370;SDS011;25099;51.946;4.838;2023-04-08T12:35:36;13.10;;;11.68;;
39370;SDS011;25099;51.946;4.838;2023-04-08T12:38:01;13.05;;;11.63;;
39370;SDS011;25099;51.946;4.838;2023-04-08T12:40:39;13.30;;;11.90;;
39370;SDS011;25099;51.946;4.838;2023-04-08T12:43:05;13.70;;;12.35;;
39370;SDS011;25099;51.946;4.838;2023-04-08T12:45:39;16.73;;;12.48;;
39370;SDS011;25099;51.946;4.838;2023-04-08T12:48:07;13.15;;;11.75;;
39370;SDS011;25099;51.946;4.838;2023-04-08T12:50:39;13.30;;;12.00;;
39370;SDS011;25099;51.946;4.838;2023-04-08T12:53:13;13.95;;;12.20;;
39370;SDS011;25099;51.946;4.838;2023-04-08T12:55:45;17.17;;;13.45;;
39370;SDS011;25099;51.946;4.838;2023-04-08T12:58:25;13.27;;;11.90;;
39370;SDS011;25099;51.946;4.838;2023-04-08T13:03:28;17.05;;;12.93;;
39370;SDS011;25099;51.946;4.838;2023-04-08T13:05:55;23.55;;;12.55;;
39370;SDS011;25099;51.946;4.838;2023-04-08T13:08:23;14.68;;;13.07;;
39370;SDS011;25099;51.946;4.838;2023-04-08T13:10:58;13.73;;;12.35;;
39370;SDS011;25099;51.946;4.838;2023-04-08T13:13:23;14.65;;;12.45;;
39370;SDS011;25099;51.946;4.838;2023-04-08T13:15:52;13.63;;;12.32;;
39370;SDS011;25099;51.946;4.838;2023-04-08T13:18:17;15.90;;;13.85;;
39370;SDS011;25099;51.946;4.838;2023-04-08T13:20:43;13.65;;;12.20;;
39370;SDS011;25099;51.946;4.838;2023-04-08T13:23:09;18.70;;;12.32;;
39370;SDS011;25099;51.946;4.838;2023-04-08T13:25:34;13.40;;;11.52;;
39370;SDS011;25099;51.946;4.838;2023-04-08T13:28:18;16.73;;;13.45;;
39370;SDS011;25099;51.946;4.838;2023-04-08T13:30:43;13.18;;;11.88;;
39370;SDS011;25099;51.946;4.838;2023-04-08T13:33:27;17.52;;;12.35;;
39370;SDS011;25099;51.946;4.838;2023-04-08T13:35:53;15.70;;;12.95;;
39370;SDS011;25099;51.946;4.838;2023-04-08T13:38:18;14.00;;;11.18;;
39370;SDS011;25099;51.946;4.838;2023-04-08T13:41:03;16.05;;;12.90;;
39370;SDS011;25099;51.946;4.838;2023-04-08T13:43:29;15.63;;;13.98;;
39370;SDS011;25099;51.946;4.838;2023-04-08T13:45:55;13.25;;;12.05;;
39370;SDS011;25099;51.946;4.838;2023-04-08T13:48:21;13.20;;;11.63;;
39370;SDS011;25099;51.946;4.838;2023-04-08T13:50:47;17.50;;;13.85;;
39370;SDS011;25099;51.946;4.838;2023-04-08T13:53:13;16.20;;;12.82;;
39370;SDS011;25099;51.946;4.838;2023-04-08T13:55:39;16.08;;;12.88;;
39370;SDS011;25099;51.946;4.838;2023-04-08T13:58:05;15.27;;;12.45;;
39370;SDS011;25099;51.946;4.838;2023-04-08T14:00:31;15.02;;;13.00;;
39370;SDS011;25099;51.946;4.838;2023-04-08T14:02:56;15.13;;;12.82;;
39370;SDS011;25099;51.946;4.838;2023-04-08T14:05:37;12.43;;;11.13;;
39370;SDS011;25099;51.946;4.838;2023-04-08T14:10:31;13.25;;;11.40;;
39370;SDS011;25099;51.946;4.838;2023-04-08T14:13:03;13.95;;;11.82;;
39370;SDS011;25099;51.946;4.838;2023-04-08T14:15:31;14.77;;;11.95;;
39370;SDS011;25099;51.946;4.838;2023-04-08T14:18:08;15.60;;;11.63;;
39370;SDS011;25099;51.946;4.838;2023-04-08T14:20:52;14.57;;;11.32;;
39370;SDS011;25099;51.946;4.838;2023-04-08T14:23:17;17.00;;;12.43;;
39370;SDS011;25099;51.946;4.838;2023-04-08T14:28:32;15.60;;;11.18;;
39370;SDS011;25099;51.946;4.838;2023-04-08T14:31:00;18.20;;;13.23;;
39370;SDS011;25099;51.946;4.838;2023-04-08T14:33:43;17.58;;;13.25;;
39370;SDS011;25099;51.946;4.838;2023-04-08T14:36:08;22.02;;;13.40;;
39370;SDS011;25099;51.946;4.838;2023-04-08T14:38:44;17.52;;;11.60;;
39370;SDS011;25099;51.946;4.838;2023-04-08T14:41:09;17.65;;;11.40;;
39370;SDS011;25099;51.946;4.838;2023-04-08T14:43:54;17.98;;;12.05;;
39370;SDS011;25099;51.946;4.838;2023-04-08T14:46:25;19.67;;;12.63;;
39370;SDS011;25099;51.946;4.838;2023-04-08T14:49:08;18.50;;;11.20;;
39370;SDS011;25099;51.946;4.838;2023-04-08T14:51:52;25.77;;;12.05;;
39370;SDS011;25099;51.946;4.838;2023-04-08T14:54:18;15.70;;;11.50;;
39370;SDS011;25099;51.946;4.838;2023-04-08T14:56:44;16.98;;;11.20;;
39370;SDS011;25099;51.946;4.838;2023-04-08T14:59:25;17.73;;;11.45;;